sensor_id;sensor_type;location;lat;lon;timestamp;temperature;humidity
44533;DHT22;48673;53.016;-2.258;2022-09-23T00:01:24;13.40;93.70
44533;DHT22;48673;53.016;-2.258;2022-09-23T00:03:52;13.40;93.70
44533;DHT22;48673;53.016;-2.258;2022-09-23T00:06:22;13.40;93.70
44533;DHT22;48673;53.016;-2.258;2022-09-23T00:08:50;13.30;93.80
44533;DHT22;48673;53.016;-2.258;2022-09-23T00:11:24;13.40;93.90
44533;DHT22;48673;53.016;-2.258;2022-09-23T00:13:54;13.40;93.90
44533;DHT22;48673;53.016;-2.258;2022-09-23T00:16:26;13.40;93.90
44533;DHT22;48673;53.016;-2.258;2022-09-23T00:18:55;13.40;93.90
44533;DHT22;48673;53.016;-2.258;2022-09-23T00:21:24;13.40;93.90
44533;DHT22;48673;53.016;-2.258;2022-09-23T00:23:52;13.40;93.90
44533;DHT22;48673;53.016;-2.258;2022-09-23T00:26:21;13.40;93.90
44533;DHT22;48673;53.016;-2.258;2022-09-23T00:28:49;13.40;94.00
44533;DHT22;48673;53.016;-2.258;2022-09-23T00:31:22;13.40;94.00
44533;DHT22;48673;53.016;-2.258;2022-09-23T00:33:59;13.40;94.00
44533;DHT22;48673;53.016;-2.258;2022-09-23T00:36:28;13.40;94.00
44533;DHT22;48673;53.016;-2.258;2022-09-23T00:38:57;13.40;94.00
44533;DHT22;48673;53.016;-2.258;2022-09-23T00:41:26;13.40;94.00
44533;DHT22;48673;53.016;-2.258;2022-09-23T00:43:59;13.40;94.00
44533;DHT22;48673;53.016;-2.258;2022-09-23T00:46:39;13.40;94.00
44533;DHT22;48673;53.016;-2.258;2022-09-23T00:49:13;13.40;94.10
44533;DHT22;48673;53.016;-2.258;2022-09-23T00:51:52;13.40;94.00
44533;DHT22;48673;53.016;-2.258;2022-09-23T00:54:22;13.40;93.80
44533;DHT22;48673;53.016;-2.258;2022-09-23T00:56:51;13.40;93.80
44533;DHT22;48673;53.016;-2.258;2022-09-23T00:59:19;13.30;93.80
44533;DHT22;48673;53.016;-2.258;2022-09-23T01:01:49;13.30;93.90
44533;DHT22;48673;53.016;-2.258;2022-09-23T01:04:22;13.30;94.00
44533;DHT22;48673;53.016;-2.258;2022-09-23T01:06:51;13.30;94.10
44533;DHT22;48673;53.016;-2.258;2022-09-23T01:09:20;13.30;94.10
44533;DHT22;48673;53.016;-2.258;2022-09-23T01:34:35;12.90;94.00
44533;DHT22;48673;53.016;-2.258;2022-09-23T01:37:16;12.80;94.10
44533;DHT22;48673;53.016;-2.258;2022-09-23T01:42:43;12.70;94.00
44533;DHT22;48673;53.016;-2.258;2022-09-23T01:45:16;12.70;94.00
44533;DHT22;48673;53.016;-2.258;2022-09-23T01:48:03;12.60;94.10
44533;DHT22;48673;53.016;-2.258;2022-09-23T01:50:40;12.60;94.20
44533;DHT22;48673;53.016;-2.258;2022-09-23T01:56:09;12.70;94.30
44533;DHT22;48673;53.016;-2.258;2022-09-23T01:58:48;12.60;94.30
44533;DHT22;48673;53.016;-2.258;2022-09-23T02:01:22;12.60;94.20
44533;DHT22;48673;53.016;-2.258;2022-09-23T02:04:09;12.60;94.20
44533;DHT22;48673;53.016;-2.258;2022-09-23T02:06:45;12.50;94.20
44533;DHT22;48673;53.016;-2.258;2022-09-23T02:09:21;12.50;94.20
44533;DHT22;48673;53.016;-2.258;2022-09-23T02:11:55;12.50;94.30
44533;DHT22;48673;53.016;-2.258;2022-09-23T02:14:31;12.50;94.40
44533;DHT22;48673;53.016;-2.258;2022-09-23T02:17:05;12.60;94.50
44533;DHT22;48673;53.016;-2.258;2022-09-23T02:19:59;12.60;94.50
44533;DHT22;48673;53.016;-2.258;2022-09-23T02:22:33;12.60;94.60
44533;DHT22;48673;53.016;-2.258;2022-09-23T02:25:03;12.60;94.50
44533;DHT22;48673;53.016;-2.258;2022-09-23T02:27:51;12.70;94.50
44533;DHT22;48673;53.016;-2.258;2022-09-23T02:30:24;12.70;94.50
44533;DHT22;48673;53.016;-2.258;2022-09-23T02:33:07;12.70;94.50
44533;DHT22;48673;53.016;-2.258;2022-09-23T02:35:54;12.80;94.60
44533;DHT22;48673;53.016;-2.258;2022-09-23T02:44:01;12.80;94.50
44533;DHT22;48673;53.016;-2.258;2022-09-23T02:46:29;12.90;94.50
44533;DHT22;48673;53.016;-2.258;2022-09-23T02:48:58;12.80;94.40
44533;DHT22;48673;53.016;-2.258;2022-09-23T02:51:28;12.80;94.40
44533;DHT22;48673;53.016;-2.258;2022-09-23T02:53:56;12.80;94.30
44533;DHT22;48673;53.016;-2.258;2022-09-23T02:56:25;12.80;94.30
44533;DHT22;48673;53.016;-2.258;2022-09-23T02:58:53;12.80;94.30
44533;DHT22;48673;53.016;-2.258;2022-09-23T03:01:37;12.80;94.30
44533;DHT22;48673;53.016;-2.258;2022-09-23T03:04:20;12.80;94.30
44533;DHT22;48673;53.016;-2.258;2022-09-23T03:09:57;12.70;94.20
44533;DHT22;48673;53.016;-2.258;2022-09-23T03:15:47;12.60;94.30
44533;DHT22;48673;53.016;-2.258;2022-09-23T03:18:27;12.70;94.40
44533;DHT22;48673;53.016;-2.258;2022-09-23T03:21:04;12.60;94.40
44533;DHT22;48673;53.016;-2.258;2022-09-23T03:23:35;12.60;94.40
44533;DHT22;48673;53.016;-2.258;2022-09-23T03:26:15;12.70;94.30
44533;DHT22;48673;53.016;-2.258;2022-09-23T03:28:44;12.70;94.30
44533;DHT22;48673;53.016;-2.258;2022-09-23T03:31:14;12.60;94.30
44533;DHT22;48673;53.016;-2.258;2022-09-23T03:33:49;12.70;94.30
44533;DHT22;48673;53.016;-2.258;2022-09-23T03:36:23;12.70;94.30
44533;DHT22;48673;53.016;-2.258;2022-09-23T03:39:16;12.70;94.30
44533;DHT22;48673;53.016;-2.258;2022-09-23T03:41:47;12.70;94.40
44533;DHT22;48673;53.016;-2.258;2022-09-23T03:44:18;12.70;94.30
44533;DHT22;48673;53.016;-2.258;2022-09-23T03:46:47;12.70;94.30
44533;DHT22;48673;53.016;-2.258;2022-09-23T03:49:24;12.70;94.30
44533;DHT22;48673;53.016;-2.258;2022-09-23T03:51:54;12.70;94.30
44533;DHT22;48673;53.016;-2.258;2022-09-23T03:54:22;12.70;94.20
44533;DHT22;48673;53.016;-2.258;2022-09-23T03:56:50;12.60;94.10
44533;DHT22;48673;53.016;-2.258;2022-09-23T03:59:18;12.60;94.10
44533;DHT22;48673;53.016;-2.258;2022-09-23T04:01:46;12.60;94.10
44533;DHT22;48673;53.016;-2.258;2022-09-23T04:04:14;12.50;94.00
44533;DHT22;48673;53.016;-2.258;2022-09-23T04:06:42;12.50;94.10
44533;DHT22;48673;53.016;-2.258;2022-09-23T04:09:10;12.50;94.10
44533;DHT22;48673;53.016;-2.258;2022-09-23T04:11:38;12.50;94.10
44533;DHT22;48673;53.016;-2.258;2022-09-23T04:14:06;12.50;94.10
44533;DHT22;48673;53.016;-2.258;2022-09-23T04:16:34;12.50;94.20
44533;DHT22;48673;53.016;-2.258;2022-09-23T04:19:01;12.60;94.20
44533;DHT22;48673;53.016;-2.258;2022-09-23T04:21:31;12.50;94.20
44533;DHT22;48673;53.016;-2.258;2022-09-23T04:23:59;12.50;94.10
44533;DHT22;48673;53.016;-2.258;2022-09-23T04:26:27;12.50;94.10
44533;DHT22;48673;53.016;-2.258;2022-09-23T04:28:54;12.50;94.10
44533;DHT22;48673;53.016;-2.258;2022-09-23T04:31:22;12.50;94.10
44533;DHT22;48673;53.016;-2.258;2022-09-23T04:33:52;12.50;94.10
44533;DHT22;48673;53.016;-2.258;2022-09-23T04:36:20;12.40;94.20
44533;DHT22;48673;53.016;-2.258;2022-09-23T04:38:48;12.40;94.20
44533;DHT22;48673;53.016;-2.258;2022-09-23T04:41:17;12.40;94.20
44533;DHT22;48673;53.016;-2.258;2022-09-23T04:43:45;12.40;94.10
44533;DHT22;48673;53.016;-2.258;2022-09-23T04:46:13;12.40;94.10
44533;DHT22;48673;53.016;-2.258;2022-09-23T04:48:42;12.40;94.10
44533;DHT22;48673;53.016;-2.258;2022-09-23T04:51:16;12.40;94.10
44533;DHT22;48673;53.016;-2.258;2022-09-23T04:53:45;12.40;94.10
44533;DHT22;48673;53.016;-2.258;2022-09-23T04:56:27;12.40;94.10
44533;DHT22;48673;53.016;-2.258;2022-09-23T04:58:55;12.40;94.20
44533;DHT22;48673;53.016;-2.258;2022-09-23T05:01:29;12.30;94.10
44533;DHT22;48673;53.016;-2.258;2022-09-23T05:03:59;12.30;94.10
44533;DHT22;48673;53.016;-2.258;2022-09-23T05:06:34;12.30;94.10
44533;DHT22;48673;53.016;-2.258;2022-09-23T05:09:04;12.20;94.10
44533;DHT22;48673;53.016;-2.258;2022-09-23T05:11:32;12.20;94.10
44533;DHT22;48673;53.016;-2.258;2022-09-23T05:14:00;12.20;94.10
44533;DHT22;48673;53.016;-2.258;2022-09-23T05:16:28;12.20;94.10
44533;DHT22;48673;53.016;-2.258;2022-09-23T05:18:56;12.20;94.10
44533;DHT22;48673;53.016;-2.258;2022-09-23T05:21:25;12.20;94.00
44533;DHT22;48673;53.016;-2.258;2022-09-23T05:23:56;12.20;94.10
44533;DHT22;48673;53.016;-2.258;2022-09-23T05:26:29;12.10;94.10
44533;DHT22;48673;53.016;-2.258;2022-09-23T05:28:57;12.10;94.10
44533;DHT22;48673;53.016;-2.258;2022-09-23T05:31:27;12.10;94.10
44533;DHT22;48673;53.016;-2.258;2022-09-23T05:33:57;12.10;94.20
44533;DHT22;48673;53.016;-2.258;2022-09-23T05:36:26;12.10;94.20
44533;DHT22;48673;53.016;-2.258;2022-09-23T05:38:54;12.10;94.20
44533;DHT22;48673;53.016;-2.258;2022-09-23T05:41:26;12.10;94.10
44533;DHT22;48673;53.016;-2.258;2022-09-23T05:43:54;12.00;94.10
44533;DHT22;48673;53.016;-2.258;2022-09-23T05:46:28;12.00;94.10
44533;DHT22;48673;53.016;-2.258;2022-09-23T05:48:58;11.90;94.10
44533;DHT22;48673;53.016;-2.258;2022-09-23T05:51:31;11.80;94.00
44533;DHT22;48673;53.016;-2.258;2022-09-23T05:53:59;11.80;94.00
44533;DHT22;48673;53.016;-2.258;2022-09-23T05:56:32;11.70;94.10
44533;DHT22;48673;53.016;-2.258;2022-09-23T05:59:01;11.70;94.10
44533;DHT22;48673;53.016;-2.258;2022-09-23T06:01:32;11.60;94.10
44533;DHT22;48673;53.016;-2.258;2022-09-23T06:04:02;11.60;94.20
44533;DHT22;48673;53.016;-2.258;2022-09-23T06:06:38;11.70;94.30
44533;DHT22;48673;53.016;-2.258;2022-09-23T06:09:08;11.60;94.30
44533;DHT22;48673;53.016;-2.258;2022-09-23T06:11:37;11.60;94.30
44533;DHT22;48673;53.016;-2.258;2022-09-23T06:14:06;11.60;94.20
44533;DHT22;48673;53.016;-2.258;2022-09-23T06:16:35;11.50;94.10
44533;DHT22;48673;53.016;-2.258;2022-09-23T06:19:03;11.50;94.00
44533;DHT22;48673;53.016;-2.258;2022-09-23T06:21:35;11.40;93.90
44533;DHT22;48673;53.016;-2.258;2022-09-23T06:24:04;11.30;93.90
44533;DHT22;48673;53.016;-2.258;2022-09-23T06:26:33;11.30;93.90
44533;DHT22;48673;53.016;-2.258;2022-09-23T06:29:03;11.20;94.10
44533;DHT22;48673;53.016;-2.258;2022-09-23T06:31:31;11.20;94.20
44533;DHT22;48673;53.016;-2.258;2022-09-23T06:33:59;11.20;94.30
44533;DHT22;48673;53.016;-2.258;2022-09-23T06:36:39;11.30;94.50
44533;DHT22;48673;53.016;-2.258;2022-09-23T06:39:12;11.30;94.60
44533;DHT22;48673;53.016;-2.258;2022-09-23T06:41:40;11.50;94.70
44533;DHT22;48673;53.016;-2.258;2022-09-23T06:44:12;11.50;94.70
44533;DHT22;48673;53.016;-2.258;2022-09-23T06:46:41;11.60;94.70
44533;DHT22;48673;53.016;-2.258;2022-09-23T06:49:10;11.60;94.70
44533;DHT22;48673;53.016;-2.258;2022-09-23T06:51:39;11.70;94.70
44533;DHT22;48673;53.016;-2.258;2022-09-23T06:54:06;11.80;94.60
44533;DHT22;48673;53.016;-2.258;2022-09-23T06:56:34;11.80;94.40
44533;DHT22;48673;53.016;-2.258;2022-09-23T06:59:08;11.70;94.20
44533;DHT22;48673;53.016;-2.258;2022-09-23T07:01:37;11.60;94.10
44533;DHT22;48673;53.016;-2.258;2022-09-23T07:04:07;11.50;94.10
44533;DHT22;48673;53.016;-2.258;2022-09-23T07:06:35;11.40;93.80
44533;DHT22;48673;53.016;-2.258;2022-09-23T07:09:05;11.40;93.70
44533;DHT22;48673;53.016;-2.258;2022-09-23T07:11:33;11.30;93.70
44533;DHT22;48673;53.016;-2.258;2022-09-23T07:14:04;11.20;93.70
44533;DHT22;48673;53.016;-2.258;2022-09-23T07:16:32;11.10;93.70
44533;DHT22;48673;53.016;-2.258;2022-09-23T07:19:03;11.00;93.70
44533;DHT22;48673;53.016;-2.258;2022-09-23T07:21:30;10.90;93.80
44533;DHT22;48673;53.016;-2.258;2022-09-23T07:23:58;10.90;93.90
44533;DHT22;48673;53.016;-2.258;2022-09-23T07:26:27;10.90;93.90
44533;DHT22;48673;53.016;-2.258;2022-09-23T07:28:57;10.90;94.00
44533;DHT22;48673;53.016;-2.258;2022-09-23T07:31:33;10.80;94.10
44533;DHT22;48673;53.016;-2.258;2022-09-23T07:34:08;10.80;94.10
44533;DHT22;48673;53.016;-2.258;2022-09-23T07:36:38;10.80;94.10
44533;DHT22;48673;53.016;-2.258;2022-09-23T07:39:10;10.80;94.20
44533;DHT22;48673;53.016;-2.258;2022-09-23T07:41:38;10.90;94.30
44533;DHT22;48673;53.016;-2.258;2022-09-23T07:44:09;10.90;94.30
44533;DHT22;48673;53.016;-2.258;2022-09-23T07:46:37;10.90;94.40
44533;DHT22;48673;53.016;-2.258;2022-09-23T07:49:05;10.90;94.40
44533;DHT22;48673;53.016;-2.258;2022-09-23T07:51:36;10.90;94.40
44533;DHT22;48673;53.016;-2.258;2022-09-23T07:54:06;10.90;94.40
44533;DHT22;48673;53.016;-2.258;2022-09-23T07:56:37;11.00;94.40
44533;DHT22;48673;53.016;-2.258;2022-09-23T07:59:06;11.00;94.40
44533;DHT22;48673;53.016;-2.258;2022-09-23T08:01:41;11.00;94.40
44533;DHT22;48673;53.016;-2.258;2022-09-23T08:06:41;11.10;94.30
44533;DHT22;48673;53.016;-2.258;2022-09-23T08:09:10;11.10;94.30
44533;DHT22;48673;53.016;-2.258;2022-09-23T08:11:39;11.10;94.30
44533;DHT22;48673;53.016;-2.258;2022-09-23T08:14:11;11.10;94.30
44533;DHT22;48673;53.016;-2.258;2022-09-23T08:16:41;11.10;94.40
44533;DHT22;48673;53.016;-2.258;2022-09-23T08:19:11;11.20;94.40
44533;DHT22;48673;53.016;-2.258;2022-09-23T08:21:40;11.20;94.40
44533;DHT22;48673;53.016;-2.258;2022-09-23T08:24:12;11.30;94.40
44533;DHT22;48673;53.016;-2.258;2022-09-23T08:26:39;11.30;94.50
44533;DHT22;48673;53.016;-2.258;2022-09-23T08:29:07;11.30;94.50
44533;DHT22;48673;53.016;-2.258;2022-09-23T08:31:38;11.40;94.50
44533;DHT22;48673;53.016;-2.258;2022-09-23T08:34:06;11.40;94.50
44533;DHT22;48673;53.016;-2.258;2022-09-23T08:36:34;11.50;94.50
44533;DHT22;48673;53.016;-2.258;2022-09-23T08:39:03;11.60;94.50
44533;DHT22;48673;53.016;-2.258;2022-09-23T08:41:45;11.60;94.40
44533;DHT22;48673;53.016;-2.258;2022-09-23T08:49:37;11.90;94.30
44533;DHT22;48673;53.016;-2.258;2022-09-23T08:52:15;11.90;94.30
44533;DHT22;48673;53.016;-2.258;2022-09-23T08:54:45;12.00;94.20
44533;DHT22;48673;53.016;-2.258;2022-09-23T08:57:35;12.00;94.10
44533;DHT22;48673;53.016;-2.258;2022-09-23T09:00:05;12.10;94.00
44533;DHT22;48673;53.016;-2.258;2022-09-23T09:02:34;12.20;93.80
44533;DHT22;48673;53.016;-2.258;2022-09-23T09:05:06;12.40;93.70
44533;DHT22;48673;53.016;-2.258;2022-09-23T09:07:38;12.40;93.50
44533;DHT22;48673;53.016;-2.258;2022-09-23T09:10:24;12.40;93.30
44533;DHT22;48673;53.016;-2.258;2022-09-23T09:13:02;12.50;93.00
44533;DHT22;48673;53.016;-2.258;2022-09-23T09:15:31;12.50;92.80
44533;DHT22;48673;53.016;-2.258;2022-09-23T09:18:11;12.60;92.60
44533;DHT22;48673;53.016;-2.258;2022-09-23T09:21:00;12.60;92.10
44533;DHT22;48673;53.016;-2.258;2022-09-23T09:29:13;12.80;91.50
44533;DHT22;48673;53.016;-2.258;2022-09-23T09:34:56;12.90;90.90
44533;DHT22;48673;53.016;-2.258;2022-09-23T09:37:55;12.90;90.50
44533;DHT22;48673;53.016;-2.258;2022-09-23T09:40:25;12.90;89.90
44533;DHT22;48673;53.016;-2.258;2022-09-23T09:42:53;13.00;89.80
44533;DHT22;48673;53.016;-2.258;2022-09-23T09:48:38;13.20;89.20
44533;DHT22;48673;53.016;-2.258;2022-09-23T09:51:21;13.30;89.10
44533;DHT22;48673;53.016;-2.258;2022-09-23T09:53:49;13.40;88.60
44533;DHT22;48673;53.016;-2.258;2022-09-23T09:56:32;13.40;88.30
44533;DHT22;48673;53.016;-2.258;2022-09-23T09:59:08;13.40;87.90
44533;DHT22;48673;53.016;-2.258;2022-09-23T10:01:38;13.50;87.80
44533;DHT22;48673;53.016;-2.258;2022-09-23T10:04:28;13.60;87.50
44533;DHT22;48673;53.016;-2.258;2022-09-23T10:07:12;13.60;87.00
44533;DHT22;48673;53.016;-2.258;2022-09-23T10:09:49;13.80;86.60
44533;DHT22;48673;53.016;-2.258;2022-09-23T10:12:24;13.90;86.30
44533;DHT22;48673;53.016;-2.258;2022-09-23T10:14:56;14.00;85.80
44533;DHT22;48673;53.016;-2.258;2022-09-23T10:17:32;14.20;85.80
44533;DHT22;48673;53.016;-2.258;2022-09-23T10:20:08;14.40;85.50
44533;DHT22;48673;53.016;-2.258;2022-09-23T10:22:44;14.40;85.10
44533;DHT22;48673;53.016;-2.258;2022-09-23T10:25:21;14.60;84.90
44533;DHT22;48673;53.016;-2.258;2022-09-23T10:27:53;14.70;84.50
44533;DHT22;48673;53.016;-2.258;2022-09-23T10:30:26;14.80;84.40
44533;DHT22;48673;53.016;-2.258;2022-09-23T10:32:54;14.90;83.60
44533;DHT22;48673;53.016;-2.258;2022-09-23T10:35:24;14.90;83.40
44533;DHT22;48673;53.016;-2.258;2022-09-23T10:37:56;14.90;82.90
44533;DHT22;48673;53.016;-2.258;2022-09-23T10:40:38;15.00;83.10
44533;DHT22;48673;53.016;-2.258;2022-09-23T10:43:56;15.20;83.00
44533;DHT22;48673;53.016;-2.258;2022-09-23T10:49:59;15.40;82.00
44533;DHT22;48673;53.016;-2.258;2022-09-23T11:12:30;15.90;79.00
44533;DHT22;48673;53.016;-2.258;2022-09-23T11:23:42;16.30;76.70
44533;DHT22;48673;53.016;-2.258;2022-09-23T11:31:58;16.20;75.90
44533;DHT22;48673;53.016;-2.258;2022-09-23T11:37:16;16.40;75.00
44533;DHT22;48673;53.016;-2.258;2022-09-23T11:39:54;16.30;74.00
44533;DHT22;48673;53.016;-2.258;2022-09-23T11:42:37;16.20;74.60
44533;DHT22;48673;53.016;-2.258;2022-09-23T11:45:21;16.40;74.60
44533;DHT22;48673;53.016;-2.258;2022-09-23T11:47:55;16.50;74.00
44533;DHT22;48673;53.016;-2.258;2022-09-23T11:51:17;16.60;73.80
44533;DHT22;48673;53.016;-2.258;2022-09-23T11:53:48;16.80;73.30
44533;DHT22;48673;53.016;-2.258;2022-09-23T11:56:31;16.90;71.90
44533;DHT22;48673;53.016;-2.258;2022-09-23T12:04:56;17.40;70.10
44533;DHT22;48673;53.016;-2.258;2022-09-23T12:07:42;17.30;69.80
44533;DHT22;48673;53.016;-2.258;2022-09-23T12:10:14;17.10;70.70
44533;DHT22;48673;53.016;-2.258;2022-09-23T12:13:03;16.90;71.70
44533;DHT22;48673;53.016;-2.258;2022-09-23T12:18:44;16.30;70.90
44533;DHT22;48673;53.016;-2.258;2022-09-23T12:26:54;16.60;70.80
44533;DHT22;48673;53.016;-2.258;2022-09-23T12:29:26;16.90;70.60
44533;DHT22;48673;53.016;-2.258;2022-09-23T12:31:55;17.30;68.50
44533;DHT22;48673;53.016;-2.258;2022-09-23T12:34:32;17.30;67.80
44533;DHT22;48673;53.016;-2.258;2022-09-23T12:37:04;17.10;67.70
44533;DHT22;48673;53.016;-2.258;2022-09-23T12:39:35;16.90;68.50
44533;DHT22;48673;53.016;-2.258;2022-09-23T12:42:17;16.80;68.70
44533;DHT22;48673;53.016;-2.258;2022-09-23T12:44:47;16.90;68.60
44533;DHT22;48673;53.016;-2.258;2022-09-23T12:49:51;17.60;68.70
44533;DHT22;48673;53.016;-2.258;2022-09-23T12:52:29;18.40;67.50
44533;DHT22;48673;53.016;-2.258;2022-09-23T12:57:51;19.40;64.10
44533;DHT22;48673;53.016;-2.258;2022-09-23T13:05:51;21.30;60.80
44533;DHT22;48673;53.016;-2.258;2022-09-23T13:08:40;21.90;57.70
44533;DHT22;48673;53.016;-2.258;2022-09-23T13:11:28;22.20;54.70
44533;DHT22;48673;53.016;-2.258;2022-09-23T13:14:00;21.50;53.00
44533;DHT22;48673;53.016;-2.258;2022-09-23T13:16:35;20.90;53.80
44533;DHT22;48673;53.016;-2.258;2022-09-23T13:22:11;21.40;52.80
44533;DHT22;48673;53.016;-2.258;2022-09-23T13:24:51;21.70;52.50
44533;DHT22;48673;53.016;-2.258;2022-09-23T13:27:32;22.00;52.90
44533;DHT22;48673;53.016;-2.258;2022-09-23T13:32:34;22.20;50.30
44533;DHT22;48673;53.016;-2.258;2022-09-23T13:35:05;21.90;50.60
44533;DHT22;48673;53.016;-2.258;2022-09-23T13:37:42;21.40;51.20
44533;DHT22;48673;53.016;-2.258;2022-09-23T13:40:22;21.00;53.10
44533;DHT22;48673;53.016;-2.258;2022-09-23T13:43:00;21.20;53.10
44533;DHT22;48673;53.016;-2.258;2022-09-23T13:45:29;21.10;53.20
44533;DHT22;48673;53.016;-2.258;2022-09-23T13:48:01;20.90;53.70
44533;DHT22;48673;53.016;-2.258;2022-09-23T13:50:33;21.40;53.00
44533;DHT22;48673;53.016;-2.258;2022-09-23T13:53:07;21.90;52.00
44533;DHT22;48673;53.016;-2.258;2022-09-23T13:55:38;22.00;50.30
44533;DHT22;48673;53.016;-2.258;2022-09-23T13:58:21;21.90;49.70
44533;DHT22;48673;53.016;-2.258;2022-09-23T14:00:50;22.20;48.10
44533;DHT22;48673;53.016;-2.258;2022-09-23T14:03:31;22.50;47.60
44533;DHT22;48673;53.016;-2.258;2022-09-23T14:06:11;23.00;46.80
44533;DHT22;48673;53.016;-2.258;2022-09-23T14:08:45;23.10;46.10
44533;DHT22;48673;53.016;-2.258;2022-09-23T14:11:21;22.40;46.70
44533;DHT22;48673;53.016;-2.258;2022-09-23T14:13:53;21.50;47.90
44533;DHT22;48673;53.016;-2.258;2022-09-23T14:16:21;20.60;50.10
44533;DHT22;48673;53.016;-2.258;2022-09-23T14:18:56;19.90;51.90
44533;DHT22;48673;53.016;-2.258;2022-09-23T14:21:38;19.40;53.40
44533;DHT22;48673;53.016;-2.258;2022-09-23T14:26:38;20.20;53.30
44533;DHT22;48673;53.016;-2.258;2022-09-23T14:29:16;21.00;51.50
44533;DHT22;48673;53.016;-2.258;2022-09-23T14:31:51;21.60;49.40
44533;DHT22;48673;53.016;-2.258;2022-09-23T14:40:53;20.70;50.80
44533;DHT22;48673;53.016;-2.258;2022-09-23T14:44:00;20.30;51.20
44533;DHT22;48673;53.016;-2.258;2022-09-23T14:46:36;20.30;51.70
44533;DHT22;48673;53.016;-2.258;2022-09-23T14:51:48;21.50;51.10
44533;DHT22;48673;53.016;-2.258;2022-09-23T14:54:43;22.40;49.20
44533;DHT22;48673;53.016;-2.258;2022-09-23T14:57:23;22.90;46.60
44533;DHT22;48673;53.016;-2.258;2022-09-23T14:59:54;23.50;44.40
44533;DHT22;48673;53.016;-2.258;2022-09-23T15:07:43;23.80;40.70
44533;DHT22;48673;53.016;-2.258;2022-09-23T15:10:22;22.80;42.00
44533;DHT22;48673;53.016;-2.258;2022-09-23T15:12:53;22.20;43.40
44533;DHT22;48673;53.016;-2.258;2022-09-23T15:15:26;21.60;44.80
44533;DHT22;48673;53.016;-2.258;2022-09-23T15:18:24;21.30;46.10
44533;DHT22;48673;53.016;-2.258;2022-09-23T15:23:47;20.40;48.50
44533;DHT22;48673;53.016;-2.258;2022-09-23T15:26:40;20.40;49.90
44533;DHT22;48673;53.016;-2.258;2022-09-23T15:29:15;20.50;50.70
44533;DHT22;48673;53.016;-2.258;2022-09-23T15:31:43;21.40;50.60
44533;DHT22;48673;53.016;-2.258;2022-09-23T15:34:10;22.40;49.20
44533;DHT22;48673;53.016;-2.258;2022-09-23T15:36:38;23.70;47.30
44533;DHT22;48673;53.016;-2.258;2022-09-23T15:39:06;24.30;45.50
44533;DHT22;48673;53.016;-2.258;2022-09-23T15:41:37;24.50;44.80
44533;DHT22;48673;53.016;-2.258;2022-09-23T15:44:13;24.90;43.70
44533;DHT22;48673;53.016;-2.258;2022-09-23T15:46:46;25.50;42.60
44533;DHT22;48673;53.016;-2.258;2022-09-23T15:51:52;26.10;40.90
44533;DHT22;48673;53.016;-2.258;2022-09-23T15:54:20;26.30;40.40
44533;DHT22;48673;53.016;-2.258;2022-09-23T15:56:48;26.30;39.30
44533;DHT22;48673;53.016;-2.258;2022-09-23T15:59:15;25.20;40.00
44533;DHT22;48673;53.016;-2.258;2022-09-23T16:01:46;23.60;42.00
44533;DHT22;48673;53.016;-2.258;2022-09-23T16:04:14;22.20;44.30
44533;DHT22;48673;53.016;-2.258;2022-09-23T16:06:44;21.20;46.40
44533;DHT22;48673;53.016;-2.258;2022-09-23T16:09:15;20.30;48.20
44533;DHT22;48673;53.016;-2.258;2022-09-23T16:11:45;19.50;50.10
44533;DHT22;48673;53.016;-2.258;2022-09-23T16:14:18;18.90;51.70
44533;DHT22;48673;53.016;-2.258;2022-09-23T16:16:46;18.40;52.90
44533;DHT22;48673;53.016;-2.258;2022-09-23T16:19:14;18.00;54.00
44533;DHT22;48673;53.016;-2.258;2022-09-23T16:21:44;17.70;55.10
44533;DHT22;48673;53.016;-2.258;2022-09-23T16:24:16;17.40;55.90
44533;DHT22;48673;53.016;-2.258;2022-09-23T16:26:46;17.20;56.30
44533;DHT22;48673;53.016;-2.258;2022-09-23T16:29:14;16.90;56.70
44533;DHT22;48673;53.016;-2.258;2022-09-23T16:31:42;16.90;57.10
44533;DHT22;48673;53.016;-2.258;2022-09-23T16:34:10;17.20;57.20
44533;DHT22;48673;53.016;-2.258;2022-09-23T16:36:42;17.70;56.60
44533;DHT22;48673;53.016;-2.258;2022-09-23T16:39:11;17.90;55.90
44533;DHT22;48673;53.016;-2.258;2022-09-23T16:41:40;17.90;56.10
44533;DHT22;48673;53.016;-2.258;2022-09-23T16:44:09;18.20;56.00
44533;DHT22;48673;53.016;-2.258;2022-09-23T16:46:38;18.40;55.20
44533;DHT22;48673;53.016;-2.258;2022-09-23T16:49:09;18.50;55.00
44533;DHT22;48673;53.016;-2.258;2022-09-23T16:51:38;18.30;55.10
44533;DHT22;48673;53.016;-2.258;2022-09-23T16:54:09;18.30;55.60
44533;DHT22;48673;53.016;-2.258;2022-09-23T16:56:40;18.30;55.60
44533;DHT22;48673;53.016;-2.258;2022-09-23T16:59:14;18.20;56.20
44533;DHT22;48673;53.016;-2.258;2022-09-23T17:01:42;18.00;56.80
44533;DHT22;48673;53.016;-2.258;2022-09-23T17:04:29;17.90;57.20
44533;DHT22;48673;53.016;-2.258;2022-09-23T17:06:57;17.90;57.50
44533;DHT22;48673;53.016;-2.258;2022-09-23T17:09:27;17.80;57.70
44533;DHT22;48673;53.016;-2.258;2022-09-23T17:12:19;17.70;58.00
44533;DHT22;48673;53.016;-2.258;2022-09-23T17:14:48;17.50;58.40
44533;DHT22;48673;53.016;-2.258;2022-09-23T17:17:19;17.40;58.70
44533;DHT22;48673;53.016;-2.258;2022-09-23T17:19:47;17.50;58.60
44533;DHT22;48673;53.016;-2.258;2022-09-23T17:22:14;17.80;58.30
44533;DHT22;48673;53.016;-2.258;2022-09-23T17:24:43;17.90;57.70
44533;DHT22;48673;53.016;-2.258;2022-09-23T17:27:13;18.00;57.20
44533;DHT22;48673;53.016;-2.258;2022-09-23T17:29:43;18.10;56.80
44533;DHT22;48673;53.016;-2.258;2022-09-23T17:32:11;18.10;56.50
44533;DHT22;48673;53.016;-2.258;2022-09-23T17:34:39;18.20;56.30
44533;DHT22;48673;53.016;-2.258;2022-09-23T17:37:07;18.20;56.20
44533;DHT22;48673;53.016;-2.258;2022-09-23T17:39:35;18.20;56.10
44533;DHT22;48673;53.016;-2.258;2022-09-23T17:42:03;18.20;56.20
44533;DHT22;48673;53.016;-2.258;2022-09-23T17:44:33;18.00;56.30
44533;DHT22;48673;53.016;-2.258;2022-09-23T17:47:02;17.90;56.60
44533;DHT22;48673;53.016;-2.258;2022-09-23T17:49:31;17.40;57.30
44533;DHT22;48673;53.016;-2.258;2022-09-23T17:52:02;16.90;58.50
44533;DHT22;48673;53.016;-2.258;2022-09-23T17:54:32;16.40;59.80
44533;DHT22;48673;53.016;-2.258;2022-09-23T17:57:01;15.90;60.90
44533;DHT22;48673;53.016;-2.258;2022-09-23T17:59:28;15.70;61.90
44533;DHT22;48673;53.016;-2.258;2022-09-23T18:01:56;15.40;62.70
44533;DHT22;48673;53.016;-2.258;2022-09-23T18:04:23;15.10;63.60
44533;DHT22;48673;53.016;-2.258;2022-09-23T18:06:51;14.90;64.70
44533;DHT22;48673;53.016;-2.258;2022-09-23T18:09:22;14.70;65.40
44533;DHT22;48673;53.016;-2.258;2022-09-23T18:11:50;14.50;66.10
44533;DHT22;48673;53.016;-2.258;2022-09-23T18:14:20;14.40;66.90
44533;DHT22;48673;53.016;-2.258;2022-09-23T18:16:50;14.30;67.50
44533;DHT22;48673;53.016;-2.258;2022-09-23T18:19:21;14.10;68.10
44533;DHT22;48673;53.016;-2.258;2022-09-23T18:21:51;14.00;68.60
44533;DHT22;48673;53.016;-2.258;2022-09-23T18:24:20;13.90;69.20